sensor_id;sensor_type;location;lat;lon;timestamp;P1;durP1;ratioP1;P2;durP2;ratioP2
55423;SDS011;41294;42.666;23.350;2024-02-23T00:01:45;10.13;;;8.77;;
55423;SDS011;41294;42.666;23.350;2024-02-23T00:04:12;10.83;;;8.90;;
55423;SDS011;41294;42.666;23.350;2024-02-23T00:06:37;11.37;;;9.57;;
55423;SDS011;41294;42.666;23.350;2024-02-23T00:09:03;10.17;;;8.93;;
55423;SDS011;41294;42.666;23.350;2024-02-23T00:11:29;11.30;;;9.40;;
55423;SDS011;41294;42.666;23.350;2024-02-23T00:13:55;10.70;;;9.60;;
55423;SDS011;41294;42.666;23.350;2024-02-23T00:16:20;13.73;;;9.50;;
55423;SDS011;41294;42.666;23.350;2024-02-23T00:18:46;11.83;;;9.67;;
55423;SDS011;41294;42.666;23.350;2024-02-23T00:21:11;11.40;;;8.93;;
55423;SDS011;41294;42.666;23.350;2024-02-23T00:23:37;13.03;;;9.57;;
55423;SDS011;41294;42.666;23.350;2024-02-23T00:26:02;11.90;;;9.20;;
55423;SDS011;41294;42.666;23.350;2024-02-23T00:28:28;9.93;;;8.60;;
55423;SDS011;41294;42.666;23.350;2024-02-23T00:30:54;12.43;;;9.50;;
55423;SDS011;41294;42.666;23.350;2024-02-23T00:33:19;10.87;;;8.83;;
55423;SDS011;41294;42.666;23.350;2024-02-23T00:35:45;10.17;;;8.73;;
55423;SDS011;41294;42.666;23.350;2024-02-23T00:38:10;11.40;;;9.80;;
55423;SDS011;41294;42.666;23.350;2024-02-23T00:40:36;10.97;;;8.97;;
55423;SDS011;41294;42.666;23.350;2024-02-23T00:43:01;11.30;;;8.87;;
55423;SDS011;41294;42.666;23.350;2024-02-23T00:45:28;10.37;;;8.53;;
55423;SDS011;41294;42.666;23.350;2024-02-23T00:47:54;11.10;;;9.53;;
55423;SDS011;41294;42.666;23.350;2024-02-23T00:50:19;10.43;;;8.97;;
55423;SDS011;41294;42.666;23.350;2024-02-23T00:52:45;11.00;;;9.37;;
55423;SDS011;41294;42.666;23.350;2024-02-23T00:55:10;10.80;;;9.10;;
55423;SDS011;41294;42.666;23.350;2024-02-23T00:57:36;11.03;;;8.93;;
55423;SDS011;41294;42.666;23.350;2024-02-23T01:00:02;12.40;;;9.47;;
55423;SDS011;41294;42.666;23.350;2024-02-23T01:02:30;10.10;;;7.90;;
55423;SDS011;41294;42.666;23.350;2024-02-23T01:04:56;12.43;;;8.80;;
55423;SDS011;41294;42.666;23.350;2024-02-23T01:07:24;11.33;;;8.93;;
55423;SDS011;41294;42.666;23.350;2024-02-23T01:09:50;12.03;;;8.73;;
55423;SDS011;41294;42.666;23.350;2024-02-23T01:12:15;11.10;;;9.90;;
55423;SDS011;41294;42.666;23.350;2024-02-23T01:14:41;11.10;;;8.97;;
55423;SDS011;41294;42.666;23.350;2024-02-23T01:17:07;9.70;;;8.70;;
55423;SDS011;41294;42.666;23.350;2024-02-23T01:19:32;9.37;;;8.17;;
55423;SDS011;41294;42.666;23.350;2024-02-23T01:21:58;10.77;;;9.40;;
55423;SDS011;41294;42.666;23.350;2024-02-23T01:24:26;13.83;;;9.10;;
55423;SDS011;41294;42.666;23.350;2024-02-23T01:26:55;12.20;;;9.20;;
55423;SDS011;41294;42.666;23.350;2024-02-23T01:29:21;10.80;;;8.70;;
55423;SDS011;41294;42.666;23.350;2024-02-23T01:31:47;12.60;;;9.50;;
55423;SDS011;41294;42.666;23.350;2024-02-23T01:34:14;10.07;;;8.63;;
55423;SDS011;41294;42.666;23.350;2024-02-23T01:36:39;10.70;;;8.40;;
55423;SDS011;41294;42.666;23.350;2024-02-23T01:39:05;9.80;;;8.80;;
55423;SDS011;41294;42.666;23.350;2024-02-23T01:41:32;10.07;;;8.07;;
55423;SDS011;41294;42.666;23.350;2024-02-23T01:43:57;10.77;;;8.80;;
55423;SDS011;41294;42.666;23.350;2024-02-23T01:46:23;9.97;;;8.60;;
55423;SDS011;41294;42.666;23.350;2024-02-23T01:48:48;11.83;;;8.30;;
55423;SDS011;41294;42.666;23.350;2024-02-23T01:51:14;10.93;;;8.60;;
55423;SDS011;41294;42.666;23.350;2024-02-23T01:53:40;10.43;;;8.60;;
55423;SDS011;41294;42.666;23.350;2024-02-23T01:56:05;10.40;;;8.83;;
55423;SDS011;41294;42.666;23.350;2024-02-23T01:58:31;9.93;;;8.60;;
55423;SDS011;41294;42.666;23.350;2024-02-23T02:01:00;13.27;;;8.83;;
55423;SDS011;41294;42.666;23.350;2024-02-23T02:03:26;10.47;;;9.17;;
55423;SDS011;41294;42.666;23.350;2024-02-23T02:05:51;10.20;;;8.93;;
55423;SDS011;41294;42.666;23.350;2024-02-23T02:08:19;11.43;;;8.90;;
55423;SDS011;41294;42.666;23.350;2024-02-23T02:10:45;10.70;;;8.90;;
55423;SDS011;41294;42.666;23.350;2024-02-23T02:13:12;11.13;;;9.07;;
55423;SDS011;41294;42.666;23.350;2024-02-23T02:15:38;10.57;;;9.23;;
55423;SDS011;41294;42.666;23.350;2024-02-23T02:18:04;10.63;;;9.00;;
55423;SDS011;41294;42.666;23.350;2024-02-23T02:20:32;12.17;;;8.83;;
55423;SDS011;41294;42.666;23.350;2024-02-23T02:22:58;9.57;;;8.30;;
55423;SDS011;41294;42.666;23.350;2024-02-23T02:25:24;9.37;;;8.00;;
55423;SDS011;41294;42.666;23.350;2024-02-23T02:27:49;9.40;;;8.37;;
55423;SDS011;41294;42.666;23.350;2024-02-23T02:30:15;13.60;;;9.20;;
55423;SDS011;41294;42.666;23.350;2024-02-23T02:32:40;10.13;;;8.07;;
55423;SDS011;41294;42.666;23.350;2024-02-23T02:35:06;8.37;;;7.50;;
55423;SDS011;41294;42.666;23.350;2024-02-23T02:37:32;9.23;;;8.23;;
55423;SDS011;41294;42.666;23.350;2024-02-23T02:39:57;11.40;;;9.27;;
55423;SDS011;41294;42.666;23.350;2024-02-23T02:42:23;12.07;;;9.00;;
55423;SDS011;41294;42.666;23.350;2024-02-23T02:44:48;14.63;;;9.53;;
55423;SDS011;41294;42.666;23.350;2024-02-23T02:47:14;10.40;;;8.77;;
55423;SDS011;41294;42.666;23.350;2024-02-23T02:49:39;9.90;;;8.77;;
55423;SDS011;41294;42.666;23.350;2024-02-23T02:52:05;11.13;;;8.43;;
55423;SDS011;41294;42.666;23.350;2024-02-23T02:54:31;10.37;;;8.70;;
55423;SDS011;41294;42.666;23.350;2024-02-23T02:56:56;11.13;;;8.93;;
55423;SDS011;41294;42.666;23.350;2024-02-23T02:59:23;12.13;;;8.87;;
55423;SDS011;41294;42.666;23.350;2024-02-23T03:01:48;9.77;;;8.53;;
55423;SDS011;41294;42.666;23.350;2024-02-23T03:04:14;9.27;;;8.07;;
55423;SDS011;41294;42.666;23.350;2024-02-23T03:06:39;10.07;;;8.77;;
55423;SDS011;41294;42.666;23.350;2024-02-23T03:09:05;11.33;;;9.43;;
55423;SDS011;41294;42.666;23.350;2024-02-23T03:11:32;10.90;;;8.97;;
55423;SDS011;41294;42.666;23.350;2024-02-23T03:13:57;11.47;;;9.43;;
55423;SDS011;41294;42.666;23.350;2024-02-23T03:16:23;8.47;;;7.67;;
55423;SDS011;41294;42.666;23.350;2024-02-23T03:18:50;10.93;;;9.10;;
55423;SDS011;41294;42.666;23.350;2024-02-23T03:21:16;16.00;;;9.43;;
55423;SDS011;41294;42.666;23.350;2024-02-23T03:23:42;13.57;;;8.90;;
55423;SDS011;41294;42.666;23.350;2024-02-23T03:26:07;11.17;;;9.33;;
55423;SDS011;41294;42.666;23.350;2024-02-23T03:28:33;10.47;;;9.33;;
55423;SDS011;41294;42.666;23.350;2024-02-23T03:31:02;11.10;;;9.77;;
55423;SDS011;41294;42.666;23.350;2024-02-23T03:33:27;10.50;;;9.10;;
55423;SDS011;41294;42.666;23.350;2024-02-23T03:35:53;11.23;;;9.20;;
55423;SDS011;41294;42.666;23.350;2024-02-23T03:38:18;12.13;;;9.37;;
55423;SDS011;41294;42.666;23.350;2024-02-23T03:40:44;9.77;;;8.07;;
55423;SDS011;41294;42.666;23.350;2024-02-23T03:43:10;13.47;;;9.43;;
55423;SDS011;41294;42.666;23.350;2024-02-23T03:45:35;10.10;;;9.00;;
55423;SDS011;41294;42.666;23.350;2024-02-23T03:48:01;12.50;;;9.70;;
55423;SDS011;41294;42.666;23.350;2024-02-23T03:50:28;11.07;;;9.00;;
55423;SDS011;41294;42.666;23.350;2024-02-23T03:52:54;11.43;;;9.50;;
55423;SDS011;41294;42.666;23.350;2024-02-23T03:55:19;11.80;;;9.20;;
55423;SDS011;41294;42.666;23.350;2024-02-23T03:57:45;11.10;;;9.27;;
55423;SDS011;41294;42.666;23.350;2024-02-23T04:00:10;12.27;;;9.37;;
55423;SDS011;41294;42.666;23.350;2024-02-23T04:02:36;12.87;;;10.30;;
55423;SDS011;41294;42.666;23.350;2024-02-23T04:05:03;11.23;;;9.60;;
55423;SDS011;41294;42.666;23.350;2024-02-23T04:07:29;10.80;;;9.40;;
55423;SDS011;41294;42.666;23.350;2024-02-23T04:09:54;10.90;;;8.90;;
55423;SDS011;41294;42.666;23.350;2024-02-23T04:12:20;10.43;;;8.70;;
55423;SDS011;41294;42.666;23.350;2024-02-23T04:14:46;13.23;;;9.50;;
55423;SDS011;41294;42.666;23.350;2024-02-23T04:17:12;11.30;;;9.00;;
55423;SDS011;41294;42.666;23.350;2024-02-23T04:19:40;11.73;;;9.83;;
55423;SDS011;41294;42.666;23.350;2024-02-23T04:22:06;12.77;;;9.27;;
55423;SDS011;41294;42.666;23.350;2024-02-23T04:24:38;11.77;;;9.53;;
55423;SDS011;41294;42.666;23.350;2024-02-23T04:27:06;11.27;;;9.00;;
55423;SDS011;41294;42.666;23.350;2024-02-23T04:29:32;10.67;;;9.17;;
55423;SDS011;41294;42.666;23.350;2024-02-23T04:32:01;11.70;;;9.73;;
55423;SDS011;41294;42.666;23.350;2024-02-23T04:34:28;11.07;;;9.67;;
55423;SDS011;41294;42.666;23.350;2024-02-23T04:36:54;11.60;;;9.50;;
55423;SDS011;41294;42.666;23.350;2024-02-23T04:39:20;11.53;;;9.23;;
55423;SDS011;41294;42.666;23.350;2024-02-23T04:41:46;10.73;;;9.30;;
55423;SDS011;41294;42.666;23.350;2024-02-23T04:44:11;11.67;;;9.53;;
55423;SDS011;41294;42.666;23.350;2024-02-23T04:46:36;11.80;;;10.23;;
55423;SDS011;41294;42.666;23.350;2024-02-23T04:49:02;12.70;;;10.60;;
55423;SDS011;41294;42.666;23.350;2024-02-23T04:51:27;10.83;;;9.03;;
55423;SDS011;41294;42.666;23.350;2024-02-23T04:53:53;12.50;;;10.13;;
55423;SDS011;41294;42.666;23.350;2024-02-23T04:56:19;12.53;;;10.50;;
55423;SDS011;41294;42.666;23.350;2024-02-23T04:58:45;13.67;;;10.27;;
55423;SDS011;41294;42.666;23.350;2024-02-23T05:01:11;15.03;;;10.70;;
55423;SDS011;41294;42.666;23.350;2024-02-23T05:03:37;12.63;;;10.13;;
55423;SDS011;41294;42.666;23.350;2024-02-23T05:06:03;13.70;;;9.90;;
55423;SDS011;41294;42.666;23.350;2024-02-23T05:08:29;11.20;;;9.67;;
55423;SDS011;41294;42.666;23.350;2024-02-23T05:10:55;15.63;;;10.97;;
55423;SDS011;41294;42.666;23.350;2024-02-23T05:13:24;16.20;;;11.63;;
55423;SDS011;41294;42.666;23.350;2024-02-23T05:15:49;13.57;;;10.03;;
55423;SDS011;41294;42.666;23.350;2024-02-23T05:18:15;13.60;;;10.73;;
55423;SDS011;41294;42.666;23.350;2024-02-23T05:20:41;15.67;;;11.03;;
55423;SDS011;41294;42.666;23.350;2024-02-23T05:23:06;13.77;;;10.67;;
55423;SDS011;41294;42.666;23.350;2024-02-23T05:25:32;12.80;;;10.77;;
55423;SDS011;41294;42.666;23.350;2024-02-23T05:27:58;15.20;;;11.43;;
55423;SDS011;41294;42.666;23.350;2024-02-23T05:30:23;12.93;;;10.27;;
55423;SDS011;41294;42.666;23.350;2024-02-23T05:32:49;12.33;;;10.17;;
55423;SDS011;41294;42.666;23.350;2024-02-23T05:35:15;12.77;;;10.77;;
55423;SDS011;41294;42.666;23.350;2024-02-23T05:37:41;11.10;;;9.90;;
55423;SDS011;41294;42.666;23.350;2024-02-23T05:40:06;12.73;;;10.70;;
55423;SDS011;41294;42.666;23.350;2024-02-23T05:42:35;13.13;;;10.47;;
55423;SDS011;41294;42.666;23.350;2024-02-23T05:45:02;11.50;;;10.10;;
55423;SDS011;41294;42.666;23.350;2024-02-23T05:47:29;14.30;;;10.20;;
55423;SDS011;41294;42.666;23.350;2024-02-23T05:49:57;13.00;;;10.70;;
55423;SDS011;41294;42.666;23.350;2024-02-23T05:52:23;14.13;;;10.43;;
55423;SDS011;41294;42.666;23.350;2024-02-23T05:54:48;13.47;;;10.20;;
55423;SDS011;41294;42.666;23.350;2024-02-23T05:57:14;14.90;;;10.93;;
55423;SDS011;41294;42.666;23.350;2024-02-23T05:59:39;13.30;;;10.17;;
55423;SDS011;41294;42.666;23.350;2024-02-23T06:02:05;11.37;;;10.17;;
55423;SDS011;41294;42.666;23.350;2024-02-23T06:04:31;12.80;;;10.83;;
55423;SDS011;41294;42.666;23.350;2024-02-23T06:06:56;12.27;;;10.90;;
55423;SDS011;41294;42.666;23.350;2024-02-23T06:09:22;15.07;;;10.80;;
55423;SDS011;41294;42.666;23.350;2024-02-23T06:11:47;13.47;;;10.60;;
55423;SDS011;41294;42.666;23.350;2024-02-23T06:14:13;12.83;;;11.00;;
55423;SDS011;41294;42.666;23.350;2024-02-23T06:16:39;21.33;;;14.70;;
55423;SDS011;41294;42.666;23.350;2024-02-23T06:19:05;14.43;;;11.43;;
55423;SDS011;41294;42.666;23.350;2024-02-23T06:21:31;14.27;;;10.83;;
55423;SDS011;41294;42.666;23.350;2024-02-23T06:23:57;14.13;;;11.00;;
55423;SDS011;41294;42.666;23.350;2024-02-23T06:26:23;12.23;;;11.00;;
55423;SDS011;41294;42.666;23.350;2024-02-23T06:28:48;15.87;;;11.70;;
55423;SDS011;41294;42.666;23.350;2024-02-23T06:31:14;13.80;;;11.43;;
55423;SDS011;41294;42.666;23.350;2024-02-23T06:33:39;14.57;;;11.07;;
55423;SDS011;41294;42.666;23.350;2024-02-23T06:36:06;13.00;;;11.17;;
55423;SDS011;41294;42.666;23.350;2024-02-23T06:38:32;14.33;;;11.73;;
55423;SDS011;41294;42.666;23.350;2024-02-23T06:40:58;15.00;;;10.73;;
55423;SDS011;41294;42.666;23.350;2024-02-23T06:43:24;15.00;;;11.57;;
55423;SDS011;41294;42.666;23.350;2024-02-23T06:45:49;14.70;;;12.27;;
55423;SDS011;41294;42.666;23.350;2024-02-23T06:48:15;14.53;;;11.90;;
55423;SDS011;41294;42.666;23.350;2024-02-23T06:50:40;14.17;;;11.37;;
55423;SDS011;41294;42.666;23.350;2024-02-23T06:53:06;12.43;;;11.17;;
55423;SDS011;41294;42.666;23.350;2024-02-23T06:55:32;14.00;;;11.57;;
55423;SDS011;41294;42.666;23.350;2024-02-23T06:57:59;12.30;;;11.10;;
55423;SDS011;41294;42.666;23.350;2024-02-23T07:00:24;13.10;;;11.17;;
55423;SDS011;41294;42.666;23.350;2024-02-23T07:02:50;14.33;;;11.77;;
55423;SDS011;41294;42.666;23.350;2024-02-23T07:05:16;15.17;;;10.93;;
55423;SDS011;41294;42.666;23.350;2024-02-23T07:07:41;16.17;;;12.23;;
55423;SDS011;41294;42.666;23.350;2024-02-23T07:10:07;14.27;;;11.80;;
55423;SDS011;41294;42.666;23.350;2024-02-23T07:12:33;14.40;;;11.40;;
55423;SDS011;41294;42.666;23.350;2024-02-23T07:14:59;16.93;;;12.13;;
55423;SDS011;41294;42.666;23.350;2024-02-23T07:17:24;17.07;;;11.43;;
55423;SDS011;41294;42.666;23.350;2024-02-23T07:19:50;14.60;;;11.17;;
55423;SDS011;41294;42.666;23.350;2024-02-23T07:22:16;17.13;;;12.20;;
55423;SDS011;41294;42.666;23.350;2024-02-23T07:24:45;15.23;;;12.93;;
55423;SDS011;41294;42.666;23.350;2024-02-23T07:27:11;15.50;;;12.73;;
55423;SDS011;41294;42.666;23.350;2024-02-23T07:29:36;15.27;;;12.50;;
55423;SDS011;41294;42.666;23.350;2024-02-23T07:32:02;15.87;;;13.20;;
55423;SDS011;41294;42.666;23.350;2024-02-23T07:34:27;16.13;;;13.23;;
55423;SDS011;41294;42.666;23.350;2024-02-23T07:36:53;15.90;;;12.83;;
55423;SDS011;41294;42.666;23.350;2024-02-23T07:39:19;17.37;;;12.23;;
55423;SDS011;41294;42.666;23.350;2024-02-23T07:41:45;16.97;;;12.97;;
55423;SDS011;41294;42.666;23.350;2024-02-23T07:44:11;19.60;;;13.30;;
55423;SDS011;41294;42.666;23.350;2024-02-23T07:46:37;16.23;;;12.73;;
55423;SDS011;41294;42.666;23.350;2024-02-23T07:49:03;14.33;;;12.83;;
55423;SDS011;41294;42.666;23.350;2024-02-23T07:51:29;17.90;;;12.67;;
55423;SDS011;41294;42.666;23.350;2024-02-23T07:53:56;13.60;;;12.07;;
55423;SDS011;41294;42.666;23.350;2024-02-23T07:56:21;18.40;;;11.80;;
55423;SDS011;41294;42.666;23.350;2024-02-23T07:58:47;14.57;;;12.70;;
55423;SDS011;41294;42.666;23.350;2024-02-23T08:01:14;13.97;;;11.77;;
55423;SDS011;41294;42.666;23.350;2024-02-23T08:03:39;13.07;;;11.70;;
55423;SDS011;41294;42.666;23.350;2024-02-23T08:06:05;16.60;;;12.50;;
55423;SDS011;41294;42.666;23.350;2024-02-23T08:08:31;12.53;;;11.03;;
55423;SDS011;41294;42.666;23.350;2024-02-23T08:11:00;12.60;;;11.30;;
55423;SDS011;41294;42.666;23.350;2024-02-23T08:13:28;15.13;;;11.63;;
55423;SDS011;41294;42.666;23.350;2024-02-23T08:15:54;16.00;;;12.50;;
55423;SDS011;41294;42.666;23.350;2024-02-23T08:18:20;14.23;;;12.33;;
55423;SDS011;41294;42.666;23.350;2024-02-23T08:20:48;14.80;;;11.73;;
55423;SDS011;41294;42.666;23.350;2024-02-23T08:23:13;13.17;;;11.23;;
55423;SDS011;41294;42.666;23.350;2024-02-23T08:25:39;12.32;;;10.95;;
55423;SDS011;41294;42.666;23.350;2024-02-23T08:28:05;12.52;;;11.25;;
55423;SDS011;41294;42.666;23.350;2024-02-23T08:30:31;14.02;;;10.90;;
55423;SDS011;41294;42.666;23.350;2024-02-23T08:32:57;13.48;;;11.18;;
55423;SDS011;41294;42.666;23.350;2024-02-23T08:35:22;14.02;;;11.13;;
55423;SDS011;41294;42.666;23.350;2024-02-23T08:37:48;13.63;;;11.60;;
55423;SDS011;41294;42.666;23.350;2024-02-23T08:40:13;14.27;;;11.70;;
55423;SDS011;41294;42.666;23.350;2024-02-23T08:42:39;12.48;;;11.15;;
55423;SDS011;41294;42.666;23.350;2024-02-23T08:45:05;13.80;;;11.05;;
55423;SDS011;41294;42.666;23.350;2024-02-23T08:47:31;13.52;;;10.15;;
55423;SDS011;41294;42.666;23.350;2024-02-23T08:49:59;12.10;;;10.63;;
55423;SDS011;41294;42.666;23.350;2024-02-23T08:52:24;13.18;;;9.98;;
55423;SDS011;41294;42.666;23.350;2024-02-23T08:54:51;11.75;;;9.60;;
55423;SDS011;41294;42.666;23.350;2024-02-23T08:57:17;15.25;;;10.48;;
55423;SDS011;41294;42.666;23.350;2024-02-23T08:59:45;11.37;;;10.20;;
55423;SDS011;41294;42.666;23.350;2024-02-23T09:02:11;12.27;;;10.30;;
55423;SDS011;41294;42.666;23.350;2024-02-23T09:04:36;12.33;;;10.60;;
55423;SDS011;41294;42.666;23.350;2024-02-23T09:07:02;11.90;;;9.88;;
55423;SDS011;41294;42.666;23.350;2024-02-23T09:09:27;12.48;;;9.88;;
55423;SDS011;41294;42.666;23.350;2024-02-23T09:11:53;11.10;;;9.90;;
55423;SDS011;41294;42.666;23.350;2024-02-23T09:14:18;9.97;;;9.00;;
55423;SDS011;41294;42.666;23.350;2024-02-23T09:16:44;11.57;;;9.23;;
55423;SDS011;41294;42.666;23.350;2024-02-23T09:19:11;10.13;;;8.47;;
55423;SDS011;41294;42.666;23.350;2024-02-23T09:21:38;13.90;;;9.43;;
55423;SDS011;41294;42.666;23.350;2024-02-23T09:24:03;12.53;;;9.37;;
55423;SDS011;41294;42.666;23.350;2024-02-23T09:26:29;10.00;;;9.00;;
55423;SDS011;41294;42.666;23.350;2024-02-23T09:28:56;13.97;;;10.10;;
55423;SDS011;41294;42.666;23.350;2024-02-23T09:31:21;9.73;;;7.80;;
55423;SDS011;41294;42.666;23.350;2024-02-23T09:33:47;10.20;;;7.93;;
55423;SDS011;41294;42.666;23.350;2024-02-23T09:36:14;9.53;;;6.07;;
55423;SDS011;41294;42.666;23.350;2024-02-23T09:38:39;6.90;;;5.53;;
55423;SDS011;41294;42.666;23.350;2024-02-23T09:41:05;9.73;;;7.77;;
55423;SDS011;41294;42.666;23.350;2024-02-23T09:43:41;6.88;;;6.18;;
55423;SDS011;41294;42.666;23.350;2024-02-23T09:46:09;6.47;;;5.77;;
55423;SDS011;41294;42.666;23.350;2024-02-23T09:48:35;6.53;;;5.30;;
55423;SDS011;41294;42.666;23.350;2024-02-23T09:51:01;5.97;;;5.38;;
55423;SDS011;41294;42.666;23.350;2024-02-23T09:53:27;6.72;;;5.30;;
55423;SDS011;41294;42.666;23.350;2024-02-23T09:55:52;5.90;;;5.30;;
55423;SDS011;41294;42.666;23.350;2024-02-23T09:58:18;7.23;;;5.50;;
55423;SDS011;41294;42.666;23.350;2024-02-23T10:00:45;6.30;;;5.70;;
55423;SDS011;41294;42.666;23.350;2024-02-23T10:03:12;5.38;;;4.88;;
55423;SDS011;41294;42.666;23.350;2024-02-23T10:05:38;4.95;;;3.85;;
55423;SDS011;41294;42.666;23.350;2024-02-23T10:08:04;3.72;;;3.38;;
55423;SDS011;41294;42.666;23.350;2024-02-23T10:10:32;4.50;;;4.10;;
55423;SDS011;41294;42.666;23.350;2024-02-23T10:12:58;4.23;;;3.83;;
55423;SDS011;41294;42.666;23.350;2024-02-23T10:15:25;5.20;;;4.25;;
55423;SDS011;41294;42.666;23.350;2024-02-23T10:17:51;5.07;;;4.25;;
55423;SDS011;41294;42.666;23.350;2024-02-23T10:20:19;5.90;;;4.15;;
55423;SDS011;41294;42.666;23.350;2024-02-23T10:22:45;6.15;;;4.47;;
55423;SDS011;41294;42.666;23.350;2024-02-23T10:25:10;5.25;;;4.40;;
55423;SDS011;41294;42.666;23.350;2024-02-23T10:27:36;5.00;;;3.92;;
55423;SDS011;41294;42.666;23.350;2024-02-23T10:30:02;4.43;;;4.03;;
55423;SDS011;41294;42.666;23.350;2024-02-23T10:32:29;4.90;;;3.77;;
55423;SDS011;41294;42.666;23.350;2024-02-23T10:34:55;5.13;;;3.97;;
55423;SDS011;41294;42.666;23.350;2024-02-23T10:37:26;4.05;;;3.65;;
55423;SDS011;41294;42.666;23.350;2024-02-23T10:39:53;4.00;;;3.55;;
55423;SDS011;41294;42.666;23.350;2024-02-23T10:42:22;9.05;;;3.58;;
55423;SDS011;41294;42.666;23.350;2024-02-23T10:44:50;4.20;;;3.50;;
55423;SDS011;41294;42.666;23.350;2024-02-23T10:47:16;5.00;;;3.40;;
55423;SDS011;41294;42.666;23.350;2024-02-23T10:49:42;5.57;;;3.80;;
55423;SDS011;41294;42.666;23.350;2024-02-23T10:52:10;4.27;;;3.63;;
55423;SDS011;41294;42.666;23.350;2024-02-23T10:54:39;3.80;;;3.40;;
55423;SDS011;41294;42.666;23.350;2024-02-23T10:57:05;3.30;;;3.03;;
55423;SDS011;41294;42.666;23.350;2024-02-23T10:59:31;4.20;;;2.93;;
55423;SDS011;41294;42.666;23.350;2024-02-23T11:01:57;5.72;;;3.55;;
55423;SDS011;41294;42.666;23.350;2024-02-23T11:04:26;4.78;;;4.32;;
55423;SDS011;41294;42.666;23.350;2024-02-23T11:06:56;4.53;;;3.30;;
55423;SDS011;41294;42.666;23.350;2024-02-23T11:09:29;2.78;;;2.40;;
55423;SDS011;41294;42.666;23.350;2024-02-23T11:11:57;3.08;;;2.72;;
55423;SDS011;41294;42.666;23.350;2024-02-23T11:14:34;2.70;;;2.50;;
55423;SDS011;41294;42.666;23.350;2024-02-23T11:17:01;3.88;;;2.70;;
55423;SDS011;41294;42.666;23.350;2024-02-23T11:19:34;3.00;;;2.80;;
55423;SDS011;41294;42.666;23.350;2024-02-23T11:22:00;2.63;;;2.42;;
55423;SDS011;41294;42.666;23.350;2024-02-23T11:24:30;2.83;;;2.58;;
55423;SDS011;41294;42.666;23.350;2024-02-23T11:27:00;4.35;;;2.60;;
55423;SDS011;41294;42.666;23.350;2024-02-23T11:29:33;2.28;;;2.00;;
55423;SDS011;41294;42.666;23.350;2024-02-23T11:31:59;3.00;;;2.80;;
55423;SDS011;41294;42.666;23.350;2024-02-23T11:34:29;2.85;;;2.40;;
55423;SDS011;41294;42.666;23.350;2024-02-23T11:36:55;4.22;;;2.40;;
55423;SDS011;41294;42.666;23.350;2024-02-23T11:39:21;2.08;;;1.98;;
55423;SDS011;41294;42.666;23.350;2024-02-23T11:41:50;2.83;;;2.05;;
55423;SDS011;41294;42.666;23.350;2024-02-23T11:44:16;2.28;;;2.08;;
55423;SDS011;41294;42.666;23.350;2024-02-23T11:46:42;2.22;;;2.10;;
55423;SDS011;41294;42.666;23.350;2024-02-23T11:49:10;2.20;;;2.10;;
55423;SDS011;41294;42.666;23.350;2024-02-23T11:51:35;2.45;;;1.90;;
55423;SDS011;41294;42.666;23.350;2024-02-23T11:54:01;2.83;;;2.25;;
55423;SDS011;41294;42.666;23.350;2024-02-23T11:56:28;2.30;;;2.10;;
55423;SDS011;41294;42.666;23.350;2024-02-23T11:58:54;2.83;;;2.08;;
55423;SDS011;41294;42.666;23.350;2024-02-23T12:01:20;2.78;;;2.15;;
55423;SDS011;41294;42.666;23.350;2024-02-23T12:03:46;2.80;;;2.28;;
55423;SDS011;41294;42.666;23.350;2024-02-23T12:06:12;2.58;;;2.13;;
55423;SDS011;41294;42.666;23.350;2024-02-23T12:08:40;3.83;;;2.75;;
55423;SDS011;41294;42.666;23.350;2024-02-23T12:11:07;2.58;;;2.38;;
55423;SDS011;41294;42.666;23.350;2024-02-23T12:13:34;2.88;;;2.10;;
55423;SDS011;41294;42.666;23.350;2024-02-23T12:16:03;2.50;;;2.30;;
55423;SDS011;41294;42.666;23.350;2024-02-23T12:18:32;2.00;;;1.90;;
55423;SDS011;41294;42.666;23.350;2024-02-23T12:21:01;6.75;;;6.00;;
55423;SDS011;41294;42.666;23.350;2024-02-23T12:23:42;2.58;;;2.38;;
55423;SDS011;41294;42.666;23.350;2024-02-23T12:26:12;2.08;;;1.98;;
55423;SDS011;41294;42.666;23.350;2024-02-23T12:28:42;2.00;;;1.90;;
55423;SDS011;41294;42.666;23.350;2024-02-23T12:31:09;2.60;;;2.40;;
55423;SDS011;41294;42.666;23.350;2024-02-23T12:33:35;2.40;;;2.20;;
55423;SDS011;41294;42.666;23.350;2024-02-23T12:36:03;3.75;;;2.28;;
55423;SDS011;41294;42.666;23.350;2024-02-23T12:38:29;2.78;;;2.17;;
55423;SDS011;41294;42.666;23.350;2024-02-23T12:40:55;2.73;;;2.07;;
55423;SDS011;41294;42.666;23.350;2024-02-23T12:43:21;2.67;;;1.95;;
55423;SDS011;41294;42.666;23.350;2024-02-23T12:45:49;3.60;;;2.17;;
55423;SDS011;41294;42.666;23.350;2024-02-23T12:48:15;2.00;;;1.90;;
55423;SDS011;41294;42.666;23.350;2024-02-23T12:50:41;2.80;;;2.60;;
55423;SDS011;41294;42.666;23.350;2024-02-23T12:53:08;2.73;;;2.47;;
55423;SDS011;41294;42.666;23.350;2024-02-23T12:55:34;1.90;;;1.80;;
55423;SDS011;41294;42.666;23.350;2024-02-23T12:58:01;2.67;;;2.00;;
55423;SDS011;41294;42.666;23.350;2024-02-23T13:00:28;1.83;;;1.73;;
55423;SDS011;41294;42.666;23.350;2024-02-23T13:02:53;2.17;;;2.07;;
55423;SDS011;41294;42.666;23.350;2024-02-23T13:05:19;2.30;;;2.10;;
55423;SDS011;41294;42.666;23.350;2024-02-23T13:07:45;2.50;;;2.20;;
55423;SDS011;41294;42.666;23.350;2024-02-23T13:10:11;2.10;;;2.00;;
55423;SDS011;41294;42.666;23.350;2024-02-23T13:12:36;2.40;;;2.20;;
55423;SDS011;41294;42.666;23.350;2024-02-23T13:15:02;3.43;;;2.93;;
55423;SDS011;41294;42.666;23.350;2024-02-23T13:17:27;1.83;;;1.73;;
55423;SDS011;41294;42.666;23.350;2024-02-23T13:19:53;2.40;;;1.80;;
55423;SDS011;41294;42.666;23.350;2024-02-23T13:22:19;2.80;;;2.17;;
55423;SDS011;41294;42.666;23.350;2024-02-23T13:24:44;2.97;;;2.27;;
55423;SDS011;41294;42.666;23.350;2024-02-23T13:27:10;2.10;;;1.93;;
55423;SDS011;41294;42.666;23.350;2024-02-23T13:29:35;10.10;;;2.88;;
55423;SDS011;41294;42.666;23.350;2024-02-23T13:32:01;3.77;;;2.33;;
55423;SDS011;41294;42.666;23.350;2024-02-23T13:34:27;2.43;;;2.30;;
55423;SDS011;41294;42.666;23.350;2024-02-23T13:36:52;3.03;;;2.00;;
55423;SDS011;41294;42.666;23.350;2024-02-23T13:39:18;3.00;;;1.90;;
55423;SDS011;41294;42.666;23.350;2024-02-23T13:41:44;2.57;;;2.10;;
55423;SDS011;41294;42.666;23.350;2024-02-23T13:44:09;3.70;;;2.40;;
55423;SDS011;41294;42.666;23.350;2024-02-23T13:46:35;3.25;;;2.90;;
55423;SDS011;41294;42.666;23.350;2024-02-23T13:49:04;3.67;;;2.30;;
55423;SDS011;41294;42.666;23.350;2024-02-23T13:51:32;2.73;;;2.17;;
55423;SDS011;41294;42.666;23.350;2024-02-23T13:53:58;2.53;;;2.17;;
55423;SDS011;41294;42.666;23.350;2024-02-23T13:56:23;2.50;;;2.30;;
55423;SDS011;41294;42.666;23.350;2024-02-23T13:58:49;2.97;;;2.47;;
55423;SDS011;41294;42.666;23.350;2024-02-23T14:01:14;3.00;;;2.30;;
55423;SDS011;41294;42.666;23.350;2024-02-23T14:03:40;4.87;;;2.70;;
55423;SDS011;41294;42.666;23.350;2024-02-23T14:06:06;2.47;;;2.03;;
55423;SDS011;41294;42.666;23.350;2024-02-23T14:08:32;2.77;;;2.20;;
55423;SDS011;41294;42.666;23.350;2024-02-23T14:10:59;2.60;;;2.40;;
55423;SDS011;41294;42.666;23.350;2024-02-23T14:13:25;2.73;;;2.20;;
55423;SDS011;41294;42.666;23.350;2024-02-23T14:15:51;2.80;;;2.60;;
55423;SDS011;41294;42.666;23.350;2024-02-23T14:18:16;2.63;;;2.43;;